Time;durP1;ratioP1;P1;durP2;ratioP2;P2;SDS_P1;SDS_P2;PMS_P1;PMS_P2;Temp;Humidity;BMP_temperature;BMP_pressure;BME280_temperature;BME280_humidity;BME280_pressure;Samples;Min_cycle;Max_cycle;Signal;HPM_P1;HPM_P2
2022/05/17 00:01:09;;;;;;;4.03;1.48;;;;;;;17.48;52.72;101560.03;4999591;28;119962;-74
2022/05/17 00:03:35;;;;;;;5.22;1.55;;;;;;;17.44;52.80;101559.47;5011009;28;119447;-75
2022/05/17 00:06:05;;;;;;;4.07;1.40;;;;;;;17.45;52.64;101558.22;5009580;28;119409;-75
2022/05/17 00:08:34;;;;;;;4.18;1.63;;;;;;;17.47;52.96;101568.84;5008731;28;120027;-75
2022/05/17 00:11:00;;;;;;;4.45;1.30;;;;;;;17.51;53.07;101574.97;5010173;28;119418;-74
2022/05/17 00:13:26;;;;;;;3.65;1.25;;;;;;;17.55;53.35;101580.34;5009211;27;119833;-75
2022/05/17 00:15:52;;;;;;;4.20;1.40;;;;;;;17.55;52.79;101575.56;5009396;28;119864;-74
2022/05/17 00:18:20;;;;;;;5.25;1.23;;;;;;;17.61;52.73;101578.44;5010517;28;119736;-74
2022/05/17 00:20:45;;;;;;;4.82;1.50;;;;;;;17.62;52.86;101579.94;4996476;28;121884;-74
2022/05/17 00:23:15;;;;;;;3.35;1.58;;;;;;;17.63;52.49;101585.03;5010690;28;119534;-74
2022/05/17 00:25:43;;;;;;;3.55;1.50;;;;;;;17.62;54.01;101585.50;4991233;28;121431;-74
2022/05/17 00:28:09;;;;;;;5.07;1.55;;;;;;;17.54;53.16;101567.72;5008722;28;121029;-75
2022/05/17 00:30:35;;;;;;;4.45;1.52;;;;;;;17.60;53.84;101588.00;5009524;28;119696;-74
2022/05/17 00:33:01;;;;;;;5.88;1.67;;;;;;;17.54;53.98;101578.81;5000666;27;119733;-74
2022/05/17 00:35:26;;;;;;;4.45;1.65;;;;;;;17.54;53.85;101579.56;4990555;28;119890;-75
2022/05/17 00:37:52;;;;;;;3.97;1.60;;;;;;;17.55;53.96;101583.88;5009481;28;120049;-75
2022/05/17 00:40:19;;;;;;;3.38;1.42;;;;;;;17.56;54.04;101581.88;5010358;28;119394;-74
2022/05/17 00:42:44;;;;;;;5.25;1.75;;;;;;;17.55;54.32;101577.56;4993363;28;120115;-74
2022/05/17 00:45:11;;;;;;;3.25;1.50;;;;;;;17.52;53.60;101576.50;5000157;28;119381;-74
2022/05/17 00:47:43;;;;;;;3.38;1.60;;;;;;;17.48;53.83;101579.44;5010234;28;119730;-74
2022/05/17 00:50:32;;;;;;;3.95;1.38;;;;;;;17.44;53.55;101576.09;5008046;28;119633;-74
2022/05/17 00:53:18;;;;;;;4.38;1.50;;;;;;;17.40;53.59;101567.22;5008523;28;121316;-74
2022/05/17 00:55:48;;;;;;;4.38;1.27;;;;;;;17.37;54.21;101570.94;4967627;28;120941;-74
2022/05/17 00:58:34;;;;;;;3.55;1.40;;;;;;;17.36;55.26;101568.66;5009809;28;119342;-74
2022/05/17 01:01:10;;;;;;;3.03;1.48;;;;;;;17.35;55.69;101564.34;5010700;28;119676;-74
2022/05/17 01:03:45;;;;;;;4.50;1.67;;;;;;;17.37;55.78;101564.63;4991016;28;120076;-74
2022/05/17 01:06:11;;;;;;;4.13;1.50;;;;;;;17.38;56.37;101566.16;4976775;28;119399;-74
2022/05/17 01:08:37;;;;;;;3.85;1.80;;;;;;;17.36;57.25;101561.09;5006837;28;120047;-74
2022/05/17 01:11:02;;;;;;;3.03;1.52;;;;;;;17.36;57.16;101560.31;5010536;28;119356;-75
2022/05/17 01:16:12;;;;;;;;;;;;;;;17.31;57.92;101558.22;4990340;28;120383;-74
2022/05/17 01:18:41;;;;;;;4.53;1.65;;;;;;;17.31;58.37;101552.66;4991059;28;119716;-75
2022/05/17 01:21:12;;;;;;;7.45;1.80;;;;;;;17.27;58.07;101550.09;5010172;28;119293;-74
2022/05/17 01:23:38;;;;;;;4.05;1.90;;;;;;;17.24;57.08;101555.78;4990726;28;120066;-74
2022/05/17 01:26:08;;;;;;;3.60;1.40;;;;;;;17.18;56.85;101564.78;4996479;28;119710;-77
2022/05/17 01:28:37;;;;;;;2.88;1.63;;;;;;;17.13;57.02;101548.81;4986072;28;122872;-74
2022/05/17 01:31:07;;;;;;;5.57;2.03;;;;;;;17.12;57.97;101552.81;5009681;27;119865;-75
2022/05/17 01:33:35;;;;;;;5.50;1.95;;;;;;;17.07;57.81;101550.72;4991415;28;119518;-75
2022/05/17 01:36:03;;;;;;;5.25;2.20;;;;;;;17.06;57.56;101553.97;5008321;28;120141;-75
2022/05/17 01:38:29;;;;;;;5.57;1.73;;;;;;;16.98;57.84;101545.22;4984592;28;119546;-75
2022/05/17 01:40:55;;;;;;;3.55;1.90;;;;;;;16.99;58.40;101548.75;4955476;28;120142;-75
2022/05/17 01:43:21;;;;;;;4.05;1.70;;;;;;;16.97;58.37;101546.47;4981321;28;119635;-75
2022/05/17 01:45:47;;;;;;;5.38;2.05;;;;;;;16.95;58.03;101545.41;4980954;28;119619;-74
2022/05/17 01:48:13;;;;;;;5.60;2.00;;;;;;;16.94;58.28;101541.09;5009371;28;119744;-74
2022/05/17 01:50:39;;;;;;;6.68;2.20;;;;;;;16.92;58.14;101532.50;5012811;28;119724;-74
2022/05/17 01:53:05;;;;;;;5.80;2.00;;;;;;;16.91;58.07;101530.97;5012835;27;119647;-74
2022/05/17 01:55:31;;;;;;;5.68;1.90;;;;;;;16.88;58.46;101527.91;5012418;28;120009;-74
2022/05/17 01:57:56;;;;;;;5.80;2.00;;;;;;;16.89;58.71;101531.44;4993949;28;119414;-74
2022/05/17 02:00:23;;;;;;;6.22;2.28;;;;;;;16.86;58.21;101526.88;4995372;28;119390;-75
2022/05/17 02:02:50;;;;;;;5.15;1.98;;;;;;;16.85;59.15;101517.03;5008445;27;119578;-74
2022/05/17 02:05:18;;;;;;;4.88;2.03;;;;;;;16.82;59.12;101526.28;5013252;28;119653;-74
2022/05/17 02:07:44;;;;;;;5.95;2.08;;;;;;;16.78;59.13;101517.34;4992813;28;119709;-74
2022/05/17 02:10:10;;;;;;;6.18;2.08;;;;;;;16.74;59.56;101514.00;5015804;28;119324;-74
2022/05/17 02:12:35;;;;;;;5.03;1.85;;;;;;;16.73;59.75;101512.47;5013039;28;119376;-74
2022/05/17 02:15:05;;;;;;;6.70;2.00;;;;;;;16.72;59.98;101520.03;5009826;28;119450;-75
2022/05/17 02:17:31;;;;;;;5.45;1.90;;;;;;;16.71;59.75;101509.41;5011626;28;119481;-74
2022/05/17 02:19:59;;;;;;;6.10;2.50;;;;;;;16.70;59.90;101508.66;5000417;28;119610;-75
2022/05/17 02:22:24;;;;;;;5.47;2.28;;;;;;;16.72;60.56;101517.25;5010358;27;119388;-75
2022/05/17 02:24:50;;;;;;;8.75;2.47;;;;;;;16.71;60.42;101509.41;4990407;28;119567;-74
2022/05/17 02:27:16;;;;;;;6.68;2.30;;;;;;;16.71;60.70;101514.97;4992907;28;120387;-74
2022/05/17 02:29:41;;;;;;;8.30;2.67;;;;;;;16.70;60.85;101505.88;5010728;28;119927;-73
2022/05/17 02:32:07;;;;;;;5.22;2.20;;;;;;;16.69;60.72;101512.66;4979153;28;119764;-74
2022/05/17 02:34:36;;;;;;;7.80;2.50;;;;;;;16.69;60.79;101509.13;4997519;28;120263;-74
2022/05/17 02:37:05;;;;;;;7.22;2.42;;;;;;;16.69;61.20;101509.13;5009790;28;119989;-77
2022/05/17 02:39:31;;;;;;;6.85;2.60;;;;;;;16.67;61.55;101498.53;4991786;28;121008;-74
2022/05/17 02:41:57;;;;;;;8.90;2.40;;;;;;;16.71;61.33;101504.63;5007863;27;121081;-74
2022/05/17 02:44:23;;;;;;;4.07;2.55;;;;;;;16.70;61.25;101496.81;5010421;28;120161;-74
2022/05/17 02:46:49;;;;;;;8.18;2.70;;;;;;;16.71;61.34;101503.88;5007127;28;120041;-77
2022/05/17 02:49:15;;;;;;;6.70;2.67;;;;;;;16.74;62.23;101497.38;5000140;28;121640;-74
2022/05/17 02:51:41;;;;;;;9.35;3.08;;;;;;;16.74;61.82;101498.16;5011942;28;119417;-74
2022/05/17 02:54:10;;;;;;;5.40;2.60;;;;;;;16.76;61.47;101494.91;5015442;28;119570;-74
2022/05/17 02:56:37;;;;;;;7.72;3.05;;;;;;;16.73;61.27;101482.00;5011097;28;119544;-74
2022/05/17 02:59:04;;;;;;;6.50;2.70;;;;;;;16.71;61.28;101487.25;5012025;28;121061;-74
2022/05/17 03:01:33;;;;;;;7.05;2.97;;;;;;;16.68;61.29;101483.44;5011551;28;121454;-75
2022/05/17 03:04:00;;;;;;;10.10;3.45;;;;;;;16.74;61.67;101483.53;5011770;28;119778;-75
2022/05/17 03:06:26;;;;;;;10.23;3.25;;;;;;;16.76;61.85;101489.38;4977047;28;120143;-74
2022/05/17 03:08:52;;;;;;;6.63;3.33;;;;;;;16.78;61.95;101484.09;5010766;28;119449;-75
2022/05/17 03:11:17;;;;;;;10.38;3.65;;;;;;;16.80;62.04;101487.97;5011001;28;119410;-73
2022/05/17 03:13:43;;;;;;;10.82;3.50;;;;;;;16.80;62.00;101481.66;5001795;28;120251;-74
2022/05/17 03:16:10;;;;;;;6.57;3.00;;;;;;;16.79;61.82;101491.94;4991934;28;119285;-74
2022/05/17 03:18:38;;;;;;;5.55;3.22;;;;;;;16.83;61.88;101491.78;5003476;28;119444;-74
2022/05/17 03:21:05;;;;;;;7.32;3.58;;;;;;;16.79;61.52;101491.19;4992076;28;121020;-75
2022/05/17 03:23:30;;;;;;;9.07;3.95;;;;;;;16.77;61.54;101490.91;5010285;28;119359;-75
2022/05/17 03:25:56;;;;;;;7.88;3.28;;;;;;;16.80;61.83;101496.28;5011936;28;119627;-74
2022/05/17 03:28:22;;;;;;;8.43;3.63;;;;;;;16.83;62.09;101500.88;4992504;28;122811;-74
2022/05/17 03:30:48;;;;;;;8.95;3.70;;;;;;;16.82;61.72;101493.03;5012294;28;119739;-74
2022/05/17 03:33:16;;;;;;;8.48;3.95;;;;;;;16.81;61.89;101497.03;4976444;28;120759;-74
2022/05/17 03:35:42;;;;;;;7.80;3.53;;;;;;;16.77;62.01;101497.19;5014665;28;120482;-74
2022/05/17 03:38:07;;;;;;;8.15;3.50;;;;;;;16.80;62.15;101501.06;4993197;28;120644;-74
2022/05/17 03:40:33;;;;;;;9.20;4.22;;;;;;;16.86;62.14;101505.47;5010129;28;120353;-74
2022/05/17 03:42:59;;;;;;;6.55;3.65;;;;;;;16.89;62.13;101506.50;4997323;28;119388;-74
2022/05/17 03:45:24;;;;;;;12.98;3.85;;;;;;;16.88;62.46;101508.53;4992020;28;119814;-74
2022/05/17 03:47:50;;;;;;;8.45;4.13;;;;;;;16.87;62.52;101512.53;4995081;28;119303;-74
2022/05/17 03:50:17;;;;;;;13.25;4.75;;;;;;;16.89;62.66;101520.38;5011393;28;119564;-75
2022/05/17 03:52:44;;;;;;;10.05;4.28;;;;;;;16.95;63.17;101526.00;5010563;27;119814;-74
2022/05/17 03:55:13;;;;;;;14.52;4.70;;;;;;;16.97;63.65;101531.84;5009009;28;119453;-75
2022/05/17 03:57:38;;;;;;;9.73;4.88;;;;;;;17.01;64.15;101541.50;5015448;28;119310;-74
2022/05/17 04:00:06;;;;;;;10.88;5.03;;;;;;;17.04;64.69;101543.34;4991731;28;119703;-75
2022/05/17 04:02:39;;;;;;;10.90;4.80;;;;;;;16.98;64.75;101530.59;4989727;28;119581;-75
2022/05/17 04:05:05;;;;;;;13.23;4.75;;;;;;;17.09;64.68;101547.47;5009079;28;119463;-76
2022/05/17 04:07:30;;;;;;;15.10;5.53;;;;;;;17.14;64.37;101557.91;5008682;28;119388;-75
2022/05/17 04:09:56;;;;;;;15.27;5.57;;;;;;;17.16;64.72;101560.94;4992551;28;119874;-75
2022/05/17 04:12:22;;;;;;;13.98;5.13;;;;;;;17.19;64.81;101569.09;5010728;28;120417;-75
2022/05/17 04:14:48;;;;;;;15.88;5.28;;;;;;;17.23;64.81;101570.91;4991868;28;122809;-74
2022/05/17 04:17:13;;;;;;;16.40;4.78;;;;;;;17.24;64.94;101586.28;4992084;28;119571;-76
2022/05/17 04:19:42;;;;;;;9.30;4.20;;;;;;;17.24;64.84;101575.19;5014144;28;119831;-74
2022/05/17 04:22:09;;;;;;;10.75;4.47;;;;;;;17.26;65.24;101584.56;5009507;27;119640;-74
2022/05/17 04:24:35;;;;;;;14.10;4.57;;;;;;;17.28;64.96;101584.13;5000319;28;119449;-75
2022/05/17 04:27:01;;;;;;;11.40;4.30;;;;;;;17.24;64.99;101584.28;5010505;28;120010;-74
2022/05/17 04:29:26;;;;;;;12.10;4.28;;;;;;;17.27;65.22;101593.66;5010263;28;119752;-74
2022/05/17 04:31:52;;;;;;;11.27;4.40;;;;;;;17.28;65.11;101600.75;5009491;28;120425;-73
2022/05/17 04:34:20;;;;;;;7.93;3.97;;;;;;;17.29;65.35;101603.06;4996401;28;121121;-74
2022/05/17 04:36:47;;;;;;;11.45;3.90;;;;;;;17.29;65.32;101607.84;4990283;28;119500;-74
2022/05/17 04:39:13;;;;;;;8.18;4.22;;;;;;;17.32;65.43;101613.19;4978253;28;120756;-74
2022/05/17 04:41:39;;;;;;;13.18;4.43;;;;;;;17.31;65.13;101608.91;4993753;28;120010;-74
2022/05/17 04:44:05;;;;;;;10.70;4.07;;;;;;;17.30;64.87;101612.16;4972581;28;121370;-74
2022/05/17 04:46:30;;;;;;;12.45;5.05;;;;;;;17.28;65.19;101609.84;4986769;28;120686;-74
2022/05/17 04:48:56;;;;;;;8.60;4.35;;;;;;;17.30;65.27;101614.91;4993486;28;119435;-75
2022/05/17 04:51:22;;;;;;;9.57;4.70;;;;;;;17.28;65.28;101611.84;4960405;28;119733;-76
2022/05/17 04:53:48;;;;;;;9.73;4.18;;;;;;;17.30;65.53;101612.91;5009681;28;121569;-73
2022/05/17 04:56:16;;;;;;;11.55;4.50;;;;;;;17.29;65.38;101621.72;4991430;28;119224;-75
2022/05/17 04:58:43;;;;;;;10.73;4.55;;;;;;;17.29;65.40;101630.78;4991895;28;119782;-74
2022/05/17 05:01:09;;;;;;;11.75;4.28;;;;;;;17.29;65.30;101622.47;5010375;28;119854;-74
2022/05/17 05:03:35;;;;;;;11.00;4.63;;;;;;;17.29;65.36;101632.81;5014480;28;119759;-74
2022/05/17 05:06:01;;;;;;;10.10;4.28;;;;;;;17.29;65.00;101635.56;4991762;28;121461;-74
2022/05/17 05:08:27;;;;;;;8.98;4.30;;;;;;;17.30;65.34;101631.56;5010673;28;119606;-73
2022/05/17 05:10:52;;;;;;;11.98;4.60;;;;;;;17.31;65.63;101633.84;4992024;28;119690;-74
2022/05/17 05:13:20;;;;;;;9.70;4.88;;;;;;;17.32;65.44;101627.06;5009174;28;121262;-74
2022/05/17 05:15:46;;;;;;;11.35;4.97;;;;;;;17.32;65.49;101634.63;5009487;28;119854;-73
2022/05/17 05:18:12;;;;;;;14.88;4.70;;;;;;;17.33;65.43;101636.16;5012062;28;119786;-74
2022/05/17 05:20:42;;;;;;;11.07;4.70;;;;;;;17.33;65.85;101631.38;4992229;28;121914;-74
2022/05/17 05:23:11;;;;;;;12.05;4.53;;;;;;;17.34;65.79;101643.22;4997881;28;119361;-74
2022/05/17 05:25:37;;;;;;;12.82;4.80;;;;;;;17.34;65.76;101641.22;4998760;28;120138;-74
2022/05/17 05:28:08;;;;;;;11.60;4.85;;;;;;;17.34;65.97;101643.22;5012298;28;119531;-75
2022/05/17 05:30:34;;;;;;;16.23;5.13;;;;;;;17.32;65.34;101638.16;5012631;28;119489;-74
2022/05/17 05:33:00;;;;;;;15.20;5.40;;;;;;;17.32;65.83;101646.47;5012933;28;120087;-74
2022/05/17 05:35:27;;;;;;;13.43;5.63;;;;;;;17.33;65.86;101647.25;5012450;27;119660;-74
2022/05/17 05:37:54;;;;;;;10.98;5.22;;;;;;;17.34;65.87;101648.78;4995675;28;120530;-74
2022/05/17 05:40:20;;;;;;;23.92;6.95;;;;;;;17.34;65.96;101648.78;4985262;28;121956;-74
2022/05/17 05:42:50;;;;;;;19.25;6.40;;;;;;;17.33;65.82;101650.03;4992569;28;119280;-75
2022/05/17 05:45:18;;;;;;;16.45;5.78;;;;;;;17.33;65.48;101658.34;5015886;28;119617;-75
2022/05/17 05:47:44;;;;;;;16.98;5.88;;;;;;;17.33;65.87;101652.78;5012301;28;120342;-75
2022/05/17 05:50:10;;;;;;;13.63;5.47;;;;;;;17.35;66.06;101655.84;5012740;28;119424;-74
2022/05/17 05:52:36;;;;;;;20.05;6.18;;;;;;;17.34;65.84;101659.88;4995306;28;120173;-74
2022/05/17 05:55:02;;;;;;;14.27;6.18;;;;;;;17.33;65.98;101661.09;5011386;28;119564;-75
2022/05/17 05:57:30;;;;;;;12.35;5.47;;;;;;;17.28;65.90;101657.00;4996005;28;119682;-73
2022/05/17 05:59:59;;;;;;;17.70;6.28;;;;;;;17.29;65.97;101657.75;5012306;28;120505;-74
2022/05/17 06:02:25;;;;;;;16.13;6.53;;;;;;;17.27;66.39;101671.31;5012307;28;119634;-75
2022/05/17 06:04:50;;;;;;;11.27;6.43;;;;;;;17.25;66.10;101669.00;4975007;28;120606;-74
2022/05/17 06:07:16;;;;;;;17.02;7.10;;;;;;;17.20;66.37;101666.88;5015357;28;119654;-74
2022/05/17 06:09:43;;;;;;;17.40;7.03;;;;;;;17.23;66.66;101670.72;4995183;28;121876;-74
2022/05/17 06:12:09;;;;;;;15.95;7.75;;;;;;;17.18;66.70;101672.91;4994582;28;120908;-74
2022/05/17 06:14:38;;;;;;;18.00;7.70;;;;;;;17.19;66.88;101670.91;5005955;28;120108;-74
2022/05/17 06:17:04;;;;;;;19.15;7.40;;;;;;;17.17;66.98;101674.16;4995208;28;119440;-74
2022/05/17 06:19:30;;;;;;;17.73;7.30;;;;;;;17.14;67.07;101668.78;5003163;28;119851;-75
2022/05/17 06:21:56;;;;;;;19.50;8.02;;;;;;;17.17;67.26;101679.69;4984692;28;119476;-74
2022/05/17 06:24:21;;;;;;;12.18;6.82;;;;;;;17.18;67.28;101672.13;5012764;28;119330;-74
2022/05/17 06:26:47;;;;;;;13.68;7.68;;;;;;;17.19;66.97;101676.44;5010095;28;121138;-73
2022/05/17 06:29:13;;;;;;;23.45;8.60;;;;;;;17.19;67.26;101676.44;5015245;27;119549;-74
2022/05/17 06:31:40;;;;;;;17.48;7.55;;;;;;;17.14;67.09;101666.00;5012502;27;119327;-74
2022/05/17 06:34:05;;;;;;;18.77;7.20;;;;;;;17.17;67.22;101682.47;4994379;28;119463;-75
2022/05/17 06:36:31;;;;;;;16.85;7.70;;;;;;;17.22;67.31;101674.72;5011305;28;119987;-74
2022/05/17 06:38:57;;;;;;;14.43;7.63;;;;;;;17.18;67.46;101672.91;5010742;28;120212;-75
2022/05/17 06:41:22;;;;;;;13.60;7.38;;;;;;;17.21;67.54;101682.28;5004024;28;119885;-76
2022/05/17 06:43:48;;;;;;;19.88;8.40;;;;;;;17.23;67.71;101682.56;5009334;27;120093;-74
2022/05/17 06:46:14;;;;;;;19.63;7.65;;;;;;;17.25;67.64;101690.41;5011226;28;120017;-74
2022/05/17 06:48:40;;;;;;;18.63;7.10;;;;;;;17.24;67.28;101680.56;5010453;28;119856;-75
2022/05/17 06:51:08;;;;;;;17.17;8.05;;;;;;;17.14;67.38;101672.31;5014611;28;120309;-74
2022/05/17 06:53:34;;;;;;;15.38;6.53;;;;;;;17.28;67.40;101687.50;4974105;28;119208;-74
2022/05/17 06:56:04;;;;;;;17.25;7.85;;;;;;;17.26;67.42;101681.63;5003700;28;119477;-74
2022/05/17 06:58:29;;;;;;;15.70;7.07;;;;;;;17.34;67.59;101687.59;4992497;28;119444;-75
2022/05/17 07:00:56;;;;;;;16.17;6.47;;;;;;;17.40;67.33;101688.47;5012062;28;119515;-74
2022/05/17 07:03:22;;;;;;;15.60;6.60;;;;;;;17.40;66.87;101691.25;4992715;28;119825;-74
2022/05/17 07:05:49;;;;;;;12.52;6.30;;;;;;;17.41;67.14;101690.00;5010829;28;120393;-73
2022/05/17 07:08:15;;;;;;;18.58;6.80;;;;;;;17.41;67.14;101695.56;4977161;28;119758;-73
2022/05/17 07:13:27;;;;;;;;;;;;;;;17.41;66.32;101701.88;4997391;28;120071;-73
2022/05/17 07:15:53;;;;;;;14.52;5.97;;;;;;;17.39;66.23;101709.13;5008525;28;120310;-74
2022/05/17 07:18:22;;;;;;;13.75;5.97;;;;;;;17.34;66.77;101704.25;5010991;28;119714;-74
2022/05/17 07:20:50;;;;;;;21.67;6.57;;;;;;;17.40;67.02;101714.19;5011231;28;119429;-73
2022/05/17 07:23:17;;;;;;;13.73;6.38;;;;;;;17.45;67.08;101718.31;5009393;28;119663;-75
2022/05/17 07:25:45;;;;;;;9.30;4.60;;;;;;;17.46;66.50;101714.31;5009018;28;119684;-75
2022/05/17 07:28:13;;;;;;;12.73;6.05;;;;;;;17.42;66.38;101713.72;4976181;28;119340;-75
2022/05/17 07:30:39;;;;;;;10.52;5.38;;;;;;;17.39;66.30;101712.66;4977995;28;120383;-74
2022/05/17 07:33:05;;;;;;;11.35;4.80;;;;;;;17.36;65.82;101712.84;5014174;28;120223;-74
2022/05/17 07:35:32;;;;;;;9.07;5.25;;;;;;;17.33;65.97;101725.66;5010790;28;122043;-75
2022/05/17 07:37:58;;;;;;;13.32;5.80;;;;;;;17.34;66.51;101718.09;4986538;28;123290;-74
2022/05/17 07:40:24;;;;;;;10.40;4.88;;;;;;;17.32;66.10;101718.59;4979149;28;120052;-74
2022/05/17 07:42:53;;;;;;;13.57;5.47;;;;;;;17.34;66.50;101713.31;4991018;28;119860;-74
2022/05/17 07:45:19;;;;;;;14.18;5.63;;;;;;;17.40;66.63;101716.22;5010448;28;119714;-74
2022/05/17 07:47:46;;;;;;;10.40;5.15;;;;;;;17.45;66.52;101723.88;5005202;28;119513;-73
2022/05/17 07:50:12;;;;;;;15.60;6.70;;;;;;;17.48;66.14;101720.16;4992664;28;120006;-74
2022/05/17 07:52:38;;;;;;;18.60;7.55;;;;;;;17.51;66.24;101724.78;5009142;28;120466;-74
2022/05/17 07:55:05;;;;;;;14.77;5.72;;;;;;;17.55;65.92;101722.59;5014457;28;119475;-74
2022/05/17 07:57:31;;;;;;;12.18;5.30;;;;;;;17.62;66.36;101724.22;4993008;28;119905;-74
2022/05/17 07:59:57;;;;;;;10.95;4.80;;;;;;;17.69;65.92;101719.09;5006899;28;119426;-73
2022/05/17 08:02:22;;;;;;;12.23;4.53;;;;;;;17.71;65.87;101716.59;4993167;28;120797;-73
2022/05/17 08:04:48;;;;;;;11.95;5.32;;;;;;;17.77;66.25;101719.50;4974076;28;120137;-74
2022/05/17 08:07:14;;;;;;;13.02;4.47;;;;;;;17.84;66.10;101718.38;4991901;28;119799;-75
2022/05/17 08:09:40;;;;;;;12.30;5.18;;;;;;;17.84;65.58;101723.91;5009770;28;119559;-75
2022/05/17 08:12:09;;;;;;;15.10;4.80;;;;;;;17.76;64.55;101713.19;4991485;28;119492;-76
2022/05/17 08:14:36;;;;;;;12.57;4.80;;;;;;;17.69;64.81;101719.09;5003498;28;119998;-75
2022/05/17 08:17:03;;;;;;;10.85;4.65;;;;;;;17.67;65.52;101715.22;4992693;28;119687;-76
2022/05/17 08:19:29;;;;;;;11.75;4.70;;;;;;;17.72;65.81;101712.59;4991622;28;120113;-75
2022/05/17 08:21:54;;;;;;;11.35;4.30;;;;;;;17.72;64.95;101712.59;4991666;28;119828;-74
2022/05/17 08:24:20;;;;;;;11.70;4.32;;;;;;;17.73;65.10;101714.13;4991624;28;120024;-73
2022/05/17 08:29:30;;;;;;;;;;;;;;;17.76;65.42;101707.66;5000851;28;120398;-74
2022/05/17 08:34:40;;;;;;;8.73;4.60;;;;;;;17.72;64.25;101718.13;5008502;28;119791;-74
2022/05/17 08:37:06;;;;;;;11.50;4.82;;;;;;;17.67;64.46;101704.94;5008587;28;119858;-74
2022/05/17 08:39:34;;;;;;;10.93;4.68;;;;;;;17.69;64.81;101707.22;4994147;28;120427;-74
2022/05/17 08:42:09;;;;;;;14.98;4.63;;;;;;;17.73;64.44;101719.66;5010319;28;119662;-74
2022/05/17 08:44:49;;;;;;;14.23;5.22;;;;;;;17.72;64.19;101718.13;5009013;28;119456;-74
2022/05/17 08:47:38;;;;;;;9.48;4.88;;;;;;;17.67;64.75;101715.22;5010209;28;119331;-74
2022/05/17 08:50:22;;;;;;;11.48;4.88;;;;;;;17.75;65.53;101722.78;4986374;28;119954;-74
2022/05/17 08:52:48;;;;;;;9.48;5.35;;;;;;;17.82;65.39;101727.19;5004950;28;119921;-75
2022/05/17 08:55:38;;;;;;;15.82;5.68;;;;;;;17.89;64.63;101732.34;5010317;28;119510;-74
2022/05/17 08:58:13;;;;;;;10.48;4.88;;;;;;;17.94;65.48;101740.00;5008873;28;119484;-75
2022/05/17 09:00:43;;;;;;;12.70;5.25;;;;;;;17.99;65.26;101741.38;5007607;28;119730;-74
2022/05/17 09:03:35;;;;;;;11.07;4.70;;;;;;;18.03;64.76;101744.72;4995894;28;120098;-74
2022/05/17 09:06:19;;;;;;;9.32;4.78;;;;;;;18.07;64.26;101754.41;4991226;28;121329;-74
2022/05/17 09:09:06;;;;;;;7.20;3.97;;;;;;;18.12;64.77;101754.97;5009253;28;119401;-74
2022/05/17 09:11:42;;;;;;;10.98;4.60;;;;;;;18.11;63.96;101759.75;5008690;28;119543;-74
2022/05/17 09:14:23;;;;;;;10.15;4.22;;;;;;;18.15;63.53;101767.91;5009034;28;120866;-74
2022/05/17 09:16:58;;;;;;;10.52;4.55;;;;;;;18.14;63.51;101752.50;4990840;28;119464;-74
2022/05/17 09:19:24;;;;;;;8.27;4.55;;;;;;;18.14;64.22;101758.81;5008758;28;119742;-75
2022/05/17 09:21:50;;;;;;;10.00;5.03;;;;;;;18.20;65.25;101754.13;5008422;28;119697;-75
2022/05/17 09:24:27;;;;;;;10.68;4.53;;;;;;;18.29;65.23;101754.03;5010051;28;119900;-75
2022/05/17 09:27:02;;;;;;;10.25;4.82;;;;;;;18.34;64.97;101749.81;5011791;28;119415;-74
2022/05/17 09:29:39;;;;;;;8.10;4.47;;;;;;;18.37;65.36;101755.19;4990091;28;119765;-74
2022/05/17 09:32:07;;;;;;;10.85;4.25;;;;;;;18.38;63.64;101765.06;5006597;28;119687;-74
2022/05/17 09:34:38;;;;;;;9.45;4.30;;;;;;;18.38;64.58;101764.28;4999733;28;120075;-75
2022/05/17 09:37:09;;;;;;;8.85;4.13;;;;;;;18.39;64.86;101772.13;5009829;28;119853;-74
2022/05/17 09:39:35;;;;;;;11.35;3.90;;;;;;;18.36;63.86;101770.31;4992141;28;119656;-74
2022/05/17 09:42:08;;;;;;;10.05;3.40;;;;;;;18.36;62.96;101781.44;4998494;28;120008;-74
2022/05/17 09:44:41;;;;;;;10.93;3.67;;;;;;;18.32;62.34;101783.63;4990704;28;119739;-75
2022/05/17 09:47:22;;;;;;;10.00;3.85;;;;;;;18.28;62.20;101783.06;5013607;28;119389;-74
2022/05/17 09:52:45;;;;;;;;;;;;;;;;;;;;;
2022/05/17 09:55:22;;;;;;;10.82;4.50;;;;;;;18.19;62.81;101787.91;4999893;28;119950;-74
2022/05/17 09:57:57;;;;;;;14.60;5.43;;;;;;;18.17;62.42;101795.97;4992488;28;119584;-74
2022/05/17 10:00:25;;;;;;;12.38;5.55;;;;;;;18.16;63.46;101789.63;5010217;28;119650;-74
2022/05/17 10:02:54;;;;;;;10.77;4.95;;;;;;;18.18;62.91;101789.94;5006953;27;120176;-74
2022/05/17 10:05:38;;;;;;;8.00;3.88;;;;;;;18.15;62.13;101793.66;4989356;28;119648;-74
2022/05/17 10:08:11;;;;;;;;;;;;;;;18.09;62.20;101787.25;5012637;28;119457;-74
2022/05/17 10:10:47;;;;;;;8.52;3.53;;;;;;;18.14;63.13;101803.22;4990353;28;121236;-75
2022/05/17 10:13:46;;;;;;;9.40;3.70;;;;;;;18.16;61.96;101813.88;4978597;28;120733;-74
2022/05/17 10:16:18;;;;;;;9.77;3.88;;;;;;;18.15;62.41;101815.09;5011529;28;120279;-75
2022/05/17 10:18:53;;;;;;;10.77;4.30;;;;;;;18.16;62.67;101816.66;5012541;28;119363;-77
2022/05/17 10:21:38;;;;;;;11.70;5.05;;;;;;;18.18;62.90;101814.16;4994631;28;120346;-75
2022/05/17 10:24:23;;;;;;;12.18;4.90;;;;;;;18.23;62.86;101821.84;5010341;28;119993;-74
2022/05/17 10:26:59;;;;;;;11.48;4.22;;;;;;;18.25;62.90;101809.00;5012523;28;119413;-75
2022/05/17 10:29:33;;;;;;;8.68;3.92;;;;;;;18.28;61.86;101827.50;5012347;28;119400;-74
2022/05/17 10:32:19;;;;;;;7.75;4.03;;;;;;;18.31;61.67;101831.34;4976497;28;121586;-74
2022/05/17 10:34:52;;;;;;;10.40;4.30;;;;;;;18.35;63.09;101841.00;5006642;28;119401;-75
2022/05/17 10:37:25;;;;;;;9.10;4.40;;;;;;;18.41;63.55;101833.53;5009519;28;120081;-75
2022/05/17 10:39:59;;;;;;;11.65;4.03;;;;;;;18.41;62.42;101827.97;5009008;28;120067;-74
2022/05/17 10:42:27;;;;;;;7.78;3.20;;;;;;;18.44;61.09;101834.59;4994299;28;119811;-75
2022/05/17 10:44:55;;;;;;;6.70;3.85;;;;;;;18.47;62.08;101830.13;5011409;28;121026;-74
2022/05/17 10:47:39;;;;;;;9.30;4.38;;;;;;;18.57;62.32;101835.09;4992147;28;119861;-74
2022/05/17 10:50:15;;;;;;;9.40;4.20;;;;;;;18.58;62.65;101836.63;4990959;28;120008;-74
2022/05/17 10:52:59;;;;;;;7.18;4.60;;;;;;;18.63;63.29;101830.44;5010786;28;120070;-74
2022/05/17 10:55:36;;;;;;;10.57;4.55;;;;;;;18.66;62.91;101832.25;4992201;28;120269;-75
2022/05/17 10:58:45;;;;;;;9.57;4.65;;;;;;;18.71;63.35;101828.06;5011333;28;119883;-74
2022/05/17 11:01:16;;;;;;;10.70;4.75;;;;;;;18.75;62.23;101822.28;4940431;28;119699;-75
2022/05/17 11:04:05;;;;;;;9.68;4.53;;;;;;;18.77;63.04;101831.69;5010729;27;120518;-74
2022/05/17 11:06:56;;;;;;;9.40;4.90;;;;;;;18.87;63.61;101824.75;5009517;28;120078;-75
2022/05/17 11:09:57;;;;;;;12.88;4.20;;;;;;;18.89;62.76;101827.06;5011591;28;119713;-75
2022/05/17 11:12:32;;;;;;;9.02;4.15;;;;;;;18.93;63.04;101822.88;4993803;28;120855;-75
2022/05/17 11:15:14;;;;;;;9.38;4.13;;;;;;;18.99;62.42;101828.50;5009716;27;119310;-74
2022/05/17 11:17:54;;;;;;;11.23;4.05;;;;;;;19.01;60.67;101835.13;5010862;28;119692;-74
2022/05/17 11:20:38;;;;;;;6.68;3.70;;;;;;;19.06;61.92;101830.13;5009504;28;119539;-74
2022/05/17 11:23:24;;;;;;;6.90;3.80;;;;;;;19.12;62.85;101845.63;5013000;27;120054;-74
2022/05/17 11:26:28;;;;;;;7.80;3.95;;;;;;;19.18;63.30;101842.97;4991803;28;120541;-75
2022/05/17 11:29:06;;;;;;;9.68;4.40;;;;;;;19.28;62.96;101838.81;4959826;28;121051;-74
2022/05/17 11:32:15;;;;;;;7.30;3.50;;;;;;;19.41;62.91;101847.63;5008206;28;119735;-74
2022/05/17 11:34:43;;;;;;;9.25;3.60;;;;;;;19.51;61.88;101848.25;4948915;28;119459;-74
2022/05/17 11:37:36;;;;;;;7.88;4.10;;;;;;;19.60;62.03;101851.69;4947453;28;119665;-74
2022/05/17 11:40:07;;;;;;;6.78;3.70;;;;;;;19.66;60.36;101849.00;4948301;28;120141;-75